Strona główna
METAR-TAF:

METAR-TAF

Lotnisko :

Ateny, Grecja

Port lotniczy Ateny

Szerokość geograficzna: 37-56N, Długość geograficzna: 023-56E, wysokość: 94 m

Aktualna obserwacja pogody

Raport powstał 32 minut temu, godzina 11:20 UTC
Wiatr 23 kt od północny zachód w porywach dochodzący do 36 kt
Temperatura 11°C
Wilgotność 22%
Ciśnienie 1008 hPa
Widzialność 10 km lub więcej
Mało chmury na wysokości 2500 ft
Rozproszone chmury na wysokości 6000 ft

METAR: LGAV 181120Z 32023G36KT 9999 FEW025 SCT060 11/M10 Q1008 NOSIG

czas: 13:52 (11:52 UTC)

Prognoza

Raport powstał 52 minut temu, godzina 11:00 UTC
Prognoza ważna od 18 godzina 12 UTC do 19 godzina 12 UTC
Wiatr 20 kt od północny zachód w porywach dochodzący do 30 kt
Widzialność 10 km lub więcej
Mało chmury na wysokości 2000 ft
Rozproszone chmury na wysokości 2500 ft
Stopniowe zmiany
od 18 godzina 20 UTC do 18 godzina 22 UTC
Wiatr 15 kt od zachodnio-północny zachód

TAF: LGAV 181100Z 1812/1912 31020G30KT 9999 FEW020 SCT025 BECMG 1820/1822 30015KT

Obserwacja i prognoza pogody dla ponad 4000 lotnisk (raport METAR i TAF).

Dostępne stacje oznaczono żółtymi i czerwonymi punktami na mapie.

Najedź kursorem aby zobaczyć nazwę stacji.

Kliknij aby zobaczyć obserwacje i prognozy pogody.

Aby zmienić mapę: kliknij na zielony przycisk z czarnym krzyżykiem, aby powiększyć; na zielony przycisk z myślnikiem, aby pomniejszyć; na zielone strzałki, aby przejść do map sąsiednich.


METAR-TAF: